sensor_id;sensor_type;location;lat;lon;timestamp;P1;durP1;ratioP1;P2;durP2;ratioP2
1276;SDS011;631;51.024;13.826;2023-09-18T00:00:31;15.97;;;14.97;;
1276;SDS011;631;51.024;13.826;2023-09-18T00:03:00;15.37;;;14.47;;
1276;SDS011;631;51.024;13.826;2023-09-18T00:05:28;15.60;;;14.60;;
1276;SDS011;631;51.024;13.826;2023-09-18T00:07:54;15.00;;;14.20;;
1276;SDS011;631;51.024;13.826;2023-09-18T00:10:19;15.40;;;14.50;;
1276;SDS011;631;51.024;13.826;2023-09-18T00:12:45;16.07;;;15.17;;
1276;SDS011;631;51.024;13.826;2023-09-18T00:15:10;15.50;;;14.60;;
1276;SDS011;631;51.024;13.826;2023-09-18T00:17:36;15.70;;;14.70;;
1276;SDS011;631;51.024;13.826;2023-09-18T00:20:02;15.80;;;14.90;;
1276;SDS011;631;51.024;13.826;2023-09-18T00:22:31;16.23;;;15.20;;
1276;SDS011;631;51.024;13.826;2023-09-18T00:24:57;16.60;;;15.50;;
1276;SDS011;631;51.024;13.826;2023-09-18T00:27:22;15.90;;;14.90;;
1276;SDS011;631;51.024;13.826;2023-09-18T00:29:48;15.77;;;14.80;;
1276;SDS011;631;51.024;13.826;2023-09-18T00:32:14;15.87;;;14.97;;
1276;SDS011;631;51.024;13.826;2023-09-18T00:34:39;16.00;;;15.10;;
1276;SDS011;631;51.024;13.826;2023-09-18T00:37:05;15.87;;;14.87;;
1276;SDS011;631;51.024;13.826;2023-09-18T00:39:30;16.47;;;15.43;;
1276;SDS011;631;51.024;13.826;2023-09-18T00:41:56;15.70;;;14.80;;
1276;SDS011;631;51.024;13.826;2023-09-18T00:44:22;16.27;;;15.27;;
1276;SDS011;631;51.024;13.826;2023-09-18T00:46:49;15.73;;;14.83;;
1276;SDS011;631;51.024;13.826;2023-09-18T00:49:16;15.97;;;15.07;;
1276;SDS011;631;51.024;13.826;2023-09-18T00:51:43;16.90;;;15.80;;
1276;SDS011;631;51.024;13.826;2023-09-18T00:54:09;16.33;;;15.40;;
1276;SDS011;631;51.024;13.826;2023-09-18T00:56:36;16.77;;;15.77;;
1276;SDS011;631;51.024;13.826;2023-09-18T00:59:01;16.63;;;15.63;;
1276;SDS011;631;51.024;13.826;2023-09-18T01:01:28;16.50;;;15.50;;
1276;SDS011;631;51.024;13.826;2023-09-18T01:03:55;15.80;;;14.90;;
1276;SDS011;631;51.024;13.826;2023-09-18T01:06:25;16.03;;;15.03;;
1276;SDS011;631;51.024;13.826;2023-09-18T01:08:55;16.43;;;15.43;;
1276;SDS011;631;51.024;13.826;2023-09-18T01:14:09;16.10;;;15.13;;
1276;SDS011;631;51.024;13.826;2023-09-18T01:16:58;16.50;;;15.50;;
1276;SDS011;631;51.024;13.826;2023-09-18T01:19:46;16.40;;;15.40;;
1276;SDS011;631;51.024;13.826;2023-09-18T01:22:16;16.13;;;15.20;;
1276;SDS011;631;51.024;13.826;2023-09-18T01:24:43;16.40;;;15.40;;
1276;SDS011;631;51.024;13.826;2023-09-18T01:27:10;16.77;;;15.80;;
1276;SDS011;631;51.024;13.826;2023-09-18T01:29:42;16.67;;;15.57;;
1276;SDS011;631;51.024;13.826;2023-09-18T01:32:08;16.30;;;15.30;;
1276;SDS011;631;51.024;13.826;2023-09-18T01:34:35;16.20;;;15.30;;
1276;SDS011;631;51.024;13.826;2023-09-18T01:37:06;16.80;;;15.80;;
1276;SDS011;631;51.024;13.826;2023-09-18T01:39:34;17.23;;;16.07;;
1276;SDS011;631;51.024;13.826;2023-09-18T01:42:01;16.50;;;15.50;;
1276;SDS011;631;51.024;13.826;2023-09-18T01:44:31;16.80;;;15.80;;
1276;SDS011;631;51.024;13.826;2023-09-18T01:47:01;17.00;;;15.90;;
1276;SDS011;631;51.024;13.826;2023-09-18T01:49:32;16.20;;;15.20;;
1276;SDS011;631;51.024;13.826;2023-09-18T01:51:59;16.23;;;15.27;;
1276;SDS011;631;51.024;13.826;2023-09-18T01:54:25;16.87;;;15.57;;
1276;SDS011;631;51.024;13.826;2023-09-18T01:56:51;15.93;;;15.03;;
1276;SDS011;631;51.024;13.826;2023-09-18T01:59:18;17.10;;;16.00;;
1276;SDS011;631;51.024;13.826;2023-09-18T02:01:44;15.60;;;14.70;;
1276;SDS011;631;51.024;13.826;2023-09-18T02:04:09;16.00;;;15.00;;
1276;SDS011;631;51.024;13.826;2023-09-18T02:06:35;16.47;;;15.47;;
1276;SDS011;631;51.024;13.826;2023-09-18T02:09:01;16.80;;;15.80;;
1276;SDS011;631;51.024;13.826;2023-09-18T02:11:28;16.63;;;15.63;;
1276;SDS011;631;51.024;13.826;2023-09-18T02:13:54;17.60;;;16.50;;
1276;SDS011;631;51.024;13.826;2023-09-18T02:16:21;17.27;;;15.97;;
1276;SDS011;631;51.024;13.826;2023-09-18T02:18:49;17.20;;;16.20;;
1276;SDS011;631;51.024;13.826;2023-09-18T02:21:18;17.60;;;16.50;;
1276;SDS011;631;51.024;13.826;2023-09-18T02:23:50;17.20;;;16.10;;
1276;SDS011;631;51.024;13.826;2023-09-18T02:26:17;16.63;;;15.63;;
1276;SDS011;631;51.024;13.826;2023-09-18T02:28:43;16.60;;;15.60;;
1276;SDS011;631;51.024;13.826;2023-09-18T02:31:09;16.63;;;15.63;;
1276;SDS011;631;51.024;13.826;2023-09-18T02:33:35;15.87;;;14.93;;
1276;SDS011;631;51.024;13.826;2023-09-18T02:36:01;16.73;;;15.60;;
1276;SDS011;631;51.024;13.826;2023-09-18T02:38:27;16.60;;;15.60;;
1276;SDS011;631;51.024;13.826;2023-09-18T02:40:53;15.90;;;14.97;;
1276;SDS011;631;51.024;13.826;2023-09-18T02:43:19;16.60;;;15.60;;
1276;SDS011;631;51.024;13.826;2023-09-18T02:45:46;16.63;;;15.53;;
1276;SDS011;631;51.024;13.826;2023-09-18T02:48:11;15.40;;;14.50;;
1276;SDS011;631;51.024;13.826;2023-09-18T02:50:37;16.63;;;15.60;;
1276;SDS011;631;51.024;13.826;2023-09-18T02:53:05;16.47;;;15.30;;
1276;SDS011;631;51.024;13.826;2023-09-18T02:55:31;16.63;;;15.53;;
1276;SDS011;631;51.024;13.826;2023-09-18T02:57:57;16.50;;;15.50;;
1276;SDS011;631;51.024;13.826;2023-09-18T03:00:24;16.17;;;15.17;;
1276;SDS011;631;51.024;13.826;2023-09-18T03:02:49;15.43;;;14.53;;
1276;SDS011;631;51.024;13.826;2023-09-18T03:05:15;16.37;;;15.37;;
1276;SDS011;631;51.024;13.826;2023-09-18T03:07:40;15.17;;;14.20;;
1276;SDS011;631;51.024;13.826;2023-09-18T03:10:06;16.53;;;15.53;;
1276;SDS011;631;51.024;13.826;2023-09-18T03:12:32;16.13;;;15.13;;
1276;SDS011;631;51.024;13.826;2023-09-18T03:14:58;16.97;;;15.80;;
1276;SDS011;631;51.024;13.826;2023-09-18T03:17:24;16.77;;;15.67;;
1276;SDS011;631;51.024;13.826;2023-09-18T03:19:50;16.47;;;15.47;;
1276;SDS011;631;51.024;13.826;2023-09-18T03:22:15;16.50;;;15.50;;
1276;SDS011;631;51.024;13.826;2023-09-18T03:24:41;15.90;;;15.00;;
1276;SDS011;631;51.024;13.826;2023-09-18T03:27:07;17.73;;;16.53;;
1276;SDS011;631;51.024;13.826;2023-09-18T03:29:32;17.27;;;16.17;;
1276;SDS011;631;51.024;13.826;2023-09-18T03:31:58;17.10;;;16.00;;
1276;SDS011;631;51.024;13.826;2023-09-18T03:34:24;16.13;;;15.23;;
1276;SDS011;631;51.024;13.826;2023-09-18T03:36:52;18.70;;;17.50;;
1276;SDS011;631;51.024;13.826;2023-09-18T03:39:18;17.03;;;16.03;;
1276;SDS011;631;51.024;13.826;2023-09-18T03:41:43;16.43;;;15.43;;
1276;SDS011;631;51.024;13.826;2023-09-18T03:44:09;17.20;;;16.10;;
1276;SDS011;631;51.024;13.826;2023-09-18T03:46:36;16.17;;;14.97;;
1276;SDS011;631;51.024;13.826;2023-09-18T03:49:01;17.10;;;16.00;;
1276;SDS011;631;51.024;13.826;2023-09-18T03:51:28;16.30;;;15.40;;
1276;SDS011;631;51.024;13.826;2023-09-18T03:53:54;17.07;;;15.87;;
1276;SDS011;631;51.024;13.826;2023-09-18T03:56:20;16.97;;;15.77;;
1276;SDS011;631;51.024;13.826;2023-09-18T03:58:47;16.80;;;15.57;;
1276;SDS011;631;51.024;13.826;2023-09-18T04:01:14;16.30;;;15.30;;
1276;SDS011;631;51.024;13.826;2023-09-18T04:03:40;15.60;;;14.70;;
1276;SDS011;631;51.024;13.826;2023-09-18T04:06:06;16.20;;;15.17;;
1276;SDS011;631;51.024;13.826;2023-09-18T04:08:32;16.53;;;15.53;;
1276;SDS011;631;51.024;13.826;2023-09-18T04:10:57;16.70;;;15.60;;
1276;SDS011;631;51.024;13.826;2023-09-18T04:13:23;16.90;;;15.87;;
1276;SDS011;631;51.024;13.826;2023-09-18T04:15:49;16.83;;;15.73;;
1276;SDS011;631;51.024;13.826;2023-09-18T04:18:16;16.07;;;15.07;;
1276;SDS011;631;51.024;13.826;2023-09-18T04:20:42;17.17;;;15.97;;
1276;SDS011;631;51.024;13.826;2023-09-18T04:23:18;16.30;;;15.30;;
1276;SDS011;631;51.024;13.826;2023-09-18T04:25:52;16.47;;;15.37;;
1276;SDS011;631;51.024;13.826;2023-09-18T04:28:19;16.60;;;15.53;;
1276;SDS011;631;51.024;13.826;2023-09-18T04:30:46;16.43;;;15.33;;
1276;SDS011;631;51.024;13.826;2023-09-18T04:33:15;16.27;;;15.13;;
1276;SDS011;631;51.024;13.826;2023-09-18T04:35:41;18.03;;;16.63;;
1276;SDS011;631;51.024;13.826;2023-09-18T04:38:08;17.23;;;16.10;;
1276;SDS011;631;51.024;13.826;2023-09-18T04:40:35;16.60;;;15.50;;
1276;SDS011;631;51.024;13.826;2023-09-18T04:43:01;17.20;;;16.00;;
1276;SDS011;631;51.024;13.826;2023-09-18T04:45:30;15.60;;;14.50;;
1276;SDS011;631;51.024;13.826;2023-09-18T04:47:56;16.37;;;15.07;;
1276;SDS011;631;51.024;13.826;2023-09-18T04:50:22;17.37;;;16.17;;
1276;SDS011;631;51.024;13.826;2023-09-18T04:52:48;17.47;;;16.37;;
1276;SDS011;631;51.024;13.826;2023-09-18T04:55:15;16.33;;;15.23;;
1276;SDS011;631;51.024;13.826;2023-09-18T04:57:41;17.40;;;16.30;;
1276;SDS011;631;51.024;13.826;2023-09-18T05:00:07;17.67;;;16.43;;
1276;SDS011;631;51.024;13.826;2023-09-18T05:02:34;16.47;;;15.47;;
1276;SDS011;631;51.024;13.826;2023-09-18T05:05:00;17.27;;;16.07;;
1276;SDS011;631;51.024;13.826;2023-09-18T05:07:27;18.00;;;16.80;;
1276;SDS011;631;51.024;13.826;2023-09-18T05:09:52;17.73;;;16.53;;
1276;SDS011;631;51.024;13.826;2023-09-18T05:12:18;17.23;;;16.03;;
1276;SDS011;631;51.024;13.826;2023-09-18T05:14:43;16.20;;;15.10;;
1276;SDS011;631;51.024;13.826;2023-09-18T05:17:16;17.60;;;16.40;;
1276;SDS011;631;51.024;13.826;2023-09-18T05:19:42;17.40;;;16.23;;
1276;SDS011;631;51.024;13.826;2023-09-18T05:22:10;17.60;;;16.50;;
1276;SDS011;631;51.024;13.826;2023-09-18T05:24:37;17.30;;;16.10;;
1276;SDS011;631;51.024;13.826;2023-09-18T05:27:03;17.83;;;16.67;;
1276;SDS011;631;51.024;13.826;2023-09-18T05:29:31;18.20;;;16.90;;
1276;SDS011;631;51.024;13.826;2023-09-18T05:31:57;16.70;;;15.50;;
1276;SDS011;631;51.024;13.826;2023-09-18T05:34:22;17.53;;;16.37;;
1276;SDS011;631;51.024;13.826;2023-09-18T05:36:48;17.53;;;16.23;;
1276;SDS011;631;51.024;13.826;2023-09-18T05:39:15;17.43;;;16.23;;
1276;SDS011;631;51.024;13.826;2023-09-18T05:41:41;16.17;;;15.17;;
1276;SDS011;631;51.024;13.826;2023-09-18T05:44:07;17.97;;;16.77;;
1276;SDS011;631;51.024;13.826;2023-09-18T05:46:36;17.30;;;16.20;;
1276;SDS011;631;51.024;13.826;2023-09-18T05:49:02;17.20;;;16.00;;
1276;SDS011;631;51.024;13.826;2023-09-18T05:51:29;16.40;;;15.40;;
1276;SDS011;631;51.024;13.826;2023-09-18T05:53:55;16.20;;;15.00;;
1276;SDS011;631;51.024;13.826;2023-09-18T05:56:21;17.93;;;16.73;;
1276;SDS011;631;51.024;13.826;2023-09-18T05:58:46;16.67;;;15.57;;
1276;SDS011;631;51.024;13.826;2023-09-18T06:01:12;16.63;;;15.53;;
1276;SDS011;631;51.024;13.826;2023-09-18T06:03:37;17.20;;;16.10;;
1276;SDS011;631;51.024;13.826;2023-09-18T06:06:03;17.17;;;16.07;;
1276;SDS011;631;51.024;13.826;2023-09-18T06:08:29;16.70;;;15.60;;
1276;SDS011;631;51.024;13.826;2023-09-18T06:10:56;17.47;;;16.27;;
1276;SDS011;631;51.024;13.826;2023-09-18T06:13:25;17.90;;;16.70;;
1276;SDS011;631;51.024;13.826;2023-09-18T06:15:53;17.90;;;16.70;;
1276;SDS011;631;51.024;13.826;2023-09-18T06:18:20;17.70;;;16.63;;
1276;SDS011;631;51.024;13.826;2023-09-18T06:20:46;17.83;;;16.63;;
1276;SDS011;631;51.024;13.826;2023-09-18T06:23:12;17.23;;;15.93;;
1276;SDS011;631;51.024;13.826;2023-09-18T06:25:41;16.90;;;15.70;;
1276;SDS011;631;51.024;13.826;2023-09-18T06:28:07;16.67;;;15.57;;
1276;SDS011;631;51.024;13.826;2023-09-18T06:30:32;16.60;;;15.50;;
1276;SDS011;631;51.024;13.826;2023-09-18T06:32:59;16.27;;;15.27;;
1276;SDS011;631;51.024;13.826;2023-09-18T06:35:26;17.47;;;16.30;;
1276;SDS011;631;51.024;13.826;2023-09-18T06:37:51;17.60;;;16.50;;
1276;SDS011;631;51.024;13.826;2023-09-18T06:40:19;18.20;;;17.00;;
1276;SDS011;631;51.024;13.826;2023-09-18T06:42:45;17.27;;;16.10;;
1276;SDS011;631;51.024;13.826;2023-09-18T06:45:11;16.60;;;15.37;;
1276;SDS011;631;51.024;13.826;2023-09-18T06:47:37;17.03;;;15.87;;
1276;SDS011;631;51.024;13.826;2023-09-18T06:50:05;17.97;;;16.77;;
1276;SDS011;631;51.024;13.826;2023-09-18T06:52:31;16.40;;;15.40;;
1276;SDS011;631;51.024;13.826;2023-09-18T06:54:56;18.47;;;17.20;;
1276;SDS011;631;51.024;13.826;2023-09-18T06:57:23;17.00;;;15.90;;
1276;SDS011;631;51.024;13.826;2023-09-18T06:59:49;16.73;;;15.63;;
1276;SDS011;631;51.024;13.826;2023-09-18T07:02:14;17.10;;;15.70;;
1276;SDS011;631;51.024;13.826;2023-09-18T07:04:41;16.90;;;15.80;;
1276;SDS011;631;51.024;13.826;2023-09-18T07:07:11;17.60;;;16.40;;
1276;SDS011;631;51.024;13.826;2023-09-18T07:09:37;18.03;;;16.83;;
1276;SDS011;631;51.024;13.826;2023-09-18T07:12:03;16.90;;;15.90;;
1276;SDS011;631;51.024;13.826;2023-09-18T07:14:29;16.60;;;15.50;;
1276;SDS011;631;51.024;13.826;2023-09-18T07:16:56;17.80;;;16.50;;
1276;SDS011;631;51.024;13.826;2023-09-18T07:19:21;17.17;;;16.00;;
1276;SDS011;631;51.024;13.826;2023-09-18T07:21:47;16.97;;;15.77;;
1276;SDS011;631;51.024;13.826;2023-09-18T07:24:13;17.30;;;16.20;;
1276;SDS011;631;51.024;13.826;2023-09-18T07:26:42;16.50;;;15.40;;
1276;SDS011;631;51.024;13.826;2023-09-18T07:29:09;16.93;;;15.90;;
1276;SDS011;631;51.024;13.826;2023-09-18T07:31:35;15.33;;;14.43;;
1276;SDS011;631;51.024;13.826;2023-09-18T07:34:00;17.30;;;16.30;;
1276;SDS011;631;51.024;13.826;2023-09-18T07:36:26;17.80;;;16.67;;
1276;SDS011;631;51.024;13.826;2023-09-18T07:38:52;15.67;;;14.70;;
1276;SDS011;631;51.024;13.826;2023-09-18T07:41:17;15.67;;;14.57;;
1276;SDS011;631;51.024;13.826;2023-09-18T07:43:44;17.17;;;16.07;;
1276;SDS011;631;51.024;13.826;2023-09-18T07:46:10;18.10;;;16.70;;
1276;SDS011;631;51.024;13.826;2023-09-18T07:48:35;16.70;;;15.60;;
1276;SDS011;631;51.024;13.826;2023-09-18T07:51:02;17.20;;;16.07;;
1276;SDS011;631;51.024;13.826;2023-09-18T07:53:28;17.40;;;16.30;;
1276;SDS011;631;51.024;13.826;2023-09-18T07:55:56;17.53;;;16.43;;
1276;SDS011;631;51.024;13.826;2023-09-18T07:58:23;17.80;;;16.70;;
1276;SDS011;631;51.024;13.826;2023-09-18T08:00:52;16.23;;;15.23;;
1276;SDS011;631;51.024;13.826;2023-09-18T08:03:22;16.60;;;15.50;;
1276;SDS011;631;51.024;13.826;2023-09-18T08:05:49;16.23;;;15.23;;
1276;SDS011;631;51.024;13.826;2023-09-18T08:08:17;16.40;;;15.50;;
1276;SDS011;631;51.024;13.826;2023-09-18T08:10:45;15.77;;;14.87;;
1276;SDS011;631;51.024;13.826;2023-09-18T08:13:11;16.80;;;15.80;;
1276;SDS011;631;51.024;13.826;2023-09-18T08:15:38;17.57;;;16.40;;
1276;SDS011;631;51.024;13.826;2023-09-18T08:18:03;16.97;;;15.97;;
1276;SDS011;631;51.024;13.826;2023-09-18T08:20:29;15.80;;;14.90;;
1276;SDS011;631;51.024;13.826;2023-09-18T08:22:55;16.30;;;15.40;;
1276;SDS011;631;51.024;13.826;2023-09-18T08:25:21;15.17;;;14.37;;
1276;SDS011;631;51.024;13.826;2023-09-18T08:27:47;16.30;;;15.40;;
1276;SDS011;631;51.024;13.826;2023-09-18T08:30:13;15.77;;;14.87;;
1276;SDS011;631;51.024;13.826;2023-09-18T08:32:40;15.77;;;14.87;;
1276;SDS011;631;51.024;13.826;2023-09-18T08:35:07;15.60;;;14.70;;
1276;SDS011;631;51.024;13.826;2023-09-18T08:37:33;14.90;;;14.10;;
1276;SDS011;631;51.024;13.826;2023-09-18T08:39:59;15.00;;;14.13;;
1276;SDS011;631;51.024;13.826;2023-09-18T08:42:25;15.30;;;14.50;;
1276;SDS011;631;51.024;13.826;2023-09-18T08:44:55;16.17;;;15.27;;
1276;SDS011;631;51.024;13.826;2023-09-18T08:47:25;14.40;;;13.60;;
1276;SDS011;631;51.024;13.826;2023-09-18T08:49:51;14.93;;;14.13;;
1276;SDS011;631;51.024;13.826;2023-09-18T08:52:19;14.23;;;13.53;;
1276;SDS011;631;51.024;13.826;2023-09-18T08:54:45;15.00;;;14.20;;
1276;SDS011;631;51.024;13.826;2023-09-18T08:57:11;14.97;;;14.17;;
1276;SDS011;631;51.024;13.826;2023-09-18T08:59:37;14.33;;;13.33;;
1276;SDS011;631;51.024;13.826;2023-09-18T09:02:05;14.53;;;13.73;;
1276;SDS011;631;51.024;13.826;2023-09-18T09:04:32;14.93;;;14.10;;
1276;SDS011;631;51.024;13.826;2023-09-18T09:06:57;15.17;;;14.37;;
1276;SDS011;631;51.024;13.826;2023-09-18T09:09:24;14.50;;;13.60;;
1276;SDS011;631;51.024;13.826;2023-09-18T09:11:54;14.83;;;14.03;;
1276;SDS011;631;51.024;13.826;2023-09-18T09:14:20;14.83;;;14.03;;
1276;SDS011;631;51.024;13.826;2023-09-18T09:16:55;14.67;;;13.97;;
1276;SDS011;631;51.024;13.826;2023-09-18T09:19:28;14.43;;;13.73;;
1276;SDS011;631;51.024;13.826;2023-09-18T09:22:00;16.13;;;14.83;;
1276;SDS011;631;51.024;13.826;2023-09-18T09:24:42;14.13;;;13.37;;
1276;SDS011;631;51.024;13.826;2023-09-18T09:27:09;14.87;;;14.07;;
1276;SDS011;631;51.024;13.826;2023-09-18T09:29:35;14.83;;;14.03;;
1276;SDS011;631;51.024;13.826;2023-09-18T09:32:15;14.20;;;13.40;;
1276;SDS011;631;51.024;13.826;2023-09-18T09:34:42;14.67;;;13.87;;
1276;SDS011;631;51.024;13.826;2023-09-18T09:37:08;14.47;;;13.77;;
1276;SDS011;631;51.024;13.826;2023-09-18T09:39:45;14.60;;;13.80;;
1276;SDS011;631;51.024;13.826;2023-09-18T09:42:14;13.13;;;12.53;;
1276;SDS011;631;51.024;13.826;2023-09-18T09:44:44;14.30;;;13.60;;
1276;SDS011;631;51.024;13.826;2023-09-18T09:47:09;14.23;;;13.53;;
1276;SDS011;631;51.024;13.826;2023-09-18T09:49:46;14.83;;;14.13;;
1276;SDS011;631;51.024;13.826;2023-09-18T09:52:18;13.63;;;12.93;;
1276;SDS011;631;51.024;13.826;2023-09-18T09:54:47;13.37;;;12.67;;
1276;SDS011;631;51.024;13.826;2023-09-18T09:57:13;14.40;;;13.70;;
1276;SDS011;631;51.024;13.826;2023-09-18T09:59:38;14.17;;;13.40;;
1276;SDS011;631;51.024;13.826;2023-09-18T10:02:09;14.57;;;13.87;;
1276;SDS011;631;51.024;13.826;2023-09-18T10:04:37;14.50;;;13.70;;
1276;SDS011;631;51.024;13.826;2023-09-18T10:07:07;14.40;;;13.70;;
1276;SDS011;631;51.024;13.826;2023-09-18T10:09:38;14.20;;;13.50;;
1276;SDS011;631;51.024;13.826;2023-09-18T10:12:10;15.47;;;14.67;;
1276;SDS011;631;51.024;13.826;2023-09-18T10:14:37;15.30;;;14.50;;
1276;SDS011;631;51.024;13.826;2023-09-18T10:17:07;15.40;;;14.60;;
1276;SDS011;631;51.024;13.826;2023-09-18T10:19:54;13.90;;;13.20;;
1276;SDS011;631;51.024;13.826;2023-09-18T10:22:37;14.90;;;14.10;;
1276;SDS011;631;51.024;13.826;2023-09-18T10:25:11;14.87;;;13.97;;
1276;SDS011;631;51.024;13.826;2023-09-18T10:27:45;13.70;;;13.00;;
1276;SDS011;631;51.024;13.826;2023-09-18T10:30:18;14.30;;;13.50;;
1276;SDS011;631;51.024;13.826;2023-09-18T10:32:44;14.93;;;14.13;;
1276;SDS011;631;51.024;13.826;2023-09-18T10:35:11;14.50;;;13.70;;
1276;SDS011;631;51.024;13.826;2023-09-18T10:37:37;13.90;;;13.20;;
1276;SDS011;631;51.024;13.826;2023-09-18T10:40:04;14.90;;;14.10;;
1276;SDS011;631;51.024;13.826;2023-09-18T10:42:33;14.80;;;14.00;;
1276;SDS011;631;51.024;13.826;2023-09-18T10:45:02;14.80;;;14.10;;
1276;SDS011;631;51.024;13.826;2023-09-18T10:47:32;14.13;;;13.43;;
1276;SDS011;631;51.024;13.826;2023-09-18T10:49:59;14.50;;;13.80;;
1276;SDS011;631;51.024;13.826;2023-09-18T10:52:26;13.90;;;13.20;;
1276;SDS011;631;51.024;13.826;2023-09-18T10:54:51;14.90;;;14.10;;
1276;SDS011;631;51.024;13.826;2023-09-18T10:57:17;14.50;;;13.60;;
1276;SDS011;631;51.024;13.826;2023-09-18T10:59:46;15.03;;;14.23;;
1276;SDS011;631;51.024;13.826;2023-09-18T11:02:16;15.43;;;14.33;;
1276;SDS011;631;51.024;13.826;2023-09-18T11:04:42;14.70;;;14.00;;
1276;SDS011;631;51.024;13.826;2023-09-18T11:07:18;15.40;;;14.60;;
1276;SDS011;631;51.024;13.826;2023-09-18T11:09:49;15.63;;;14.80;;
1276;SDS011;631;51.024;13.826;2023-09-18T11:12:16;15.00;;;14.10;;
1276;SDS011;631;51.024;13.826;2023-09-18T11:17:38;14.90;;;14.10;;
1276;SDS011;631;51.024;13.826;2023-09-18T11:20:08;15.50;;;14.60;;
1276;SDS011;631;51.024;13.826;2023-09-18T11:22:46;13.97;;;13.27;;
1276;SDS011;631;51.024;13.826;2023-09-18T11:28:02;15.13;;;13.93;;
1276;SDS011;631;51.024;13.826;2023-09-18T11:30:28;14.23;;;13.47;;
1276;SDS011;631;51.024;13.826;2023-09-18T11:32:55;15.10;;;14.30;;
1276;SDS011;631;51.024;13.826;2023-09-18T11:35:21;16.10;;;15.20;;
1276;SDS011;631;51.024;13.826;2023-09-18T11:37:48;16.37;;;15.37;;
1276;SDS011;631;51.024;13.826;2023-09-18T11:40:33;15.53;;;14.63;;
1276;SDS011;631;51.024;13.826;2023-09-18T11:45:50;15.37;;;14.47;;
1276;SDS011;631;51.024;13.826;2023-09-18T11:48:17;14.87;;;14.07;;
1276;SDS011;631;51.024;13.826;2023-09-18T11:50:44;14.23;;;13.43;;
1276;SDS011;631;51.024;13.826;2023-09-18T11:53:11;15.17;;;14.27;;
1276;SDS011;631;51.024;13.826;2023-09-18T11:55:39;15.07;;;14.27;;
1276;SDS011;631;51.024;13.826;2023-09-18T11:58:05;15.13;;;14.33;;
1276;SDS011;631;51.024;13.826;2023-09-18T12:00:31;14.80;;;14.10;;
1276;SDS011;631;51.024;13.826;2023-09-18T12:02:57;15.43;;;14.57;;
1276;SDS011;631;51.024;13.826;2023-09-18T12:05:26;15.30;;;14.40;;
1276;SDS011;631;51.024;13.826;2023-09-18T12:07:51;15.13;;;14.33;;
1276;SDS011;631;51.024;13.826;2023-09-18T12:10:19;15.10;;;14.30;;
1276;SDS011;631;51.024;13.826;2023-09-18T12:12:47;16.33;;;15.33;;
1276;SDS011;631;51.024;13.826;2023-09-18T12:15:16;15.00;;;14.10;;
1276;SDS011;631;51.024;13.826;2023-09-18T12:17:44;15.10;;;14.30;;
1276;SDS011;631;51.024;13.826;2023-09-18T12:20:17;16.00;;;15.00;;
1276;SDS011;631;51.024;13.826;2023-09-18T12:22:46;15.20;;;14.40;;
1276;SDS011;631;51.024;13.826;2023-09-18T12:25:15;15.40;;;14.50;;
1276;SDS011;631;51.024;13.826;2023-09-18T12:27:44;16.20;;;15.40;;
1276;SDS011;631;51.024;13.826;2023-09-18T12:30:10;15.90;;;15.10;;
1276;SDS011;631;51.024;13.826;2023-09-18T12:32:38;15.23;;;14.43;;
1276;SDS011;631;51.024;13.826;2023-09-18T12:35:06;15.80;;;14.90;;
1276;SDS011;631;51.024;13.826;2023-09-18T12:37:44;16.03;;;15.23;;
1276;SDS011;631;51.024;13.826;2023-09-18T12:40:24;16.30;;;15.50;;
1276;SDS011;631;51.024;13.826;2023-09-18T12:42:51;16.67;;;15.77;;
1276;SDS011;631;51.024;13.826;2023-09-18T12:45:20;16.20;;;15.30;;
1276;SDS011;631;51.024;13.826;2023-09-18T12:47:48;15.93;;;15.13;;
1276;SDS011;631;51.024;13.826;2023-09-18T12:50:14;17.50;;;16.50;;
1276;SDS011;631;51.024;13.826;2023-09-18T12:52:40;15.80;;;15.00;;
1276;SDS011;631;51.024;13.826;2023-09-18T12:55:20;16.37;;;15.37;;
1276;SDS011;631;51.024;13.826;2023-09-18T12:57:50;16.83;;;15.47;;
1276;SDS011;631;51.024;13.826;2023-09-18T13:00:21;15.30;;;14.50;;
1276;SDS011;631;51.024;13.826;2023-09-18T13:02:51;15.33;;;14.53;;
1276;SDS011;631;51.024;13.826;2023-09-18T13:05:20;15.17;;;14.37;;
1276;SDS011;631;51.024;13.826;2023-09-18T13:07:50;17.13;;;16.10;;
1276;SDS011;631;51.024;13.826;2023-09-18T13:10:16;14.37;;;13.57;;
1276;SDS011;631;51.024;13.826;2023-09-18T13:12:45;15.60;;;14.80;;
1276;SDS011;631;51.024;13.826;2023-09-18T13:15:14;16.17;;;15.27;;
1276;SDS011;631;51.024;13.826;2023-09-18T13:17:48;15.97;;;15.07;;
1276;SDS011;631;51.024;13.826;2023-09-18T13:20:21;16.03;;;15.20;;
1276;SDS011;631;51.024;13.826;2023-09-18T13:22:57;15.70;;;14.80;;
1276;SDS011;631;51.024;13.826;2023-09-18T13:25:24;15.80;;;14.93;;
1276;SDS011;631;51.024;13.826;2023-09-18T13:27:54;14.83;;;14.03;;
1276;SDS011;631;51.024;13.826;2023-09-18T13:30:20;15.13;;;14.30;;
1276;SDS011;631;51.024;13.826;2023-09-18T13:32:47;15.73;;;14.93;;
1276;SDS011;631;51.024;13.826;2023-09-18T13:35:17;15.70;;;14.90;;
1276;SDS011;631;51.024;13.826;2023-09-18T13:37:43;15.57;;;14.80;;
1276;SDS011;631;51.024;13.826;2023-09-18T13:40:10;16.33;;;15.53;;
1276;SDS011;631;51.024;13.826;2023-09-18T13:42:36;16.50;;;15.43;;
1276;SDS011;631;51.024;13.826;2023-09-18T13:45:03;15.43;;;14.53;;
1276;SDS011;631;51.024;13.826;2023-09-18T13:47:31;15.93;;;15.10;;
1276;SDS011;631;51.024;13.826;2023-09-18T13:49:59;17.23;;;16.33;;
1276;SDS011;631;51.024;13.826;2023-09-18T13:52:34;16.30;;;15.40;;
1276;SDS011;631;51.024;13.826;2023-09-18T13:55:02;16.00;;;15.10;;
1276;SDS011;631;51.024;13.826;2023-09-18T13:57:30;15.73;;;14.83;;
1276;SDS011;631;51.024;13.826;2023-09-18T14:00:00;16.23;;;15.33;;
1276;SDS011;631;51.024;13.826;2023-09-18T14:02:30;15.83;;;14.87;;
1276;SDS011;631;51.024;13.826;2023-09-18T14:04:55;15.93;;;15.03;;
1276;SDS011;631;51.024;13.826;2023-09-18T14:07:21;17.13;;;16.13;;
1276;SDS011;631;51.024;13.826;2023-09-18T14:09:47;15.30;;;14.17;;
1276;SDS011;631;51.024;13.826;2023-09-18T14:12:13;16.00;;;15.10;;
1276;SDS011;631;51.024;13.826;2023-09-18T14:14:39;16.30;;;15.20;;
1276;SDS011;631;51.024;13.826;2023-09-18T14:17:09;14.90;;;14.10;;
1276;SDS011;631;51.024;13.826;2023-09-18T14:19:36;15.17;;;14.37;;
1276;SDS011;631;51.024;13.826;2023-09-18T14:22:07;15.00;;;14.20;;
1276;SDS011;631;51.024;13.826;2023-09-18T14:24:34;16.60;;;15.70;;
1276;SDS011;631;51.024;13.826;2023-09-18T14:27:00;15.80;;;15.00;;
1276;SDS011;631;51.024;13.826;2023-09-18T14:29:26;16.00;;;15.10;;
1276;SDS011;631;51.024;13.826;2023-09-18T14:31:52;15.50;;;14.70;;
1276;SDS011;631;51.024;13.826;2023-09-18T14:34:18;14.90;;;14.10;;
1276;SDS011;631;51.024;13.826;2023-09-18T14:36:44;16.10;;;15.20;;
1276;SDS011;631;51.024;13.826;2023-09-18T14:39:10;15.03;;;14.20;;
1276;SDS011;631;51.024;13.826;2023-09-18T14:41:36;15.50;;;14.50;;
1276;SDS011;631;51.024;13.826;2023-09-18T14:44:02;16.00;;;15.10;;
1276;SDS011;631;51.024;13.826;2023-09-18T14:46:30;13.90;;;13.17;;
1276;SDS011;631;51.024;13.826;2023-09-18T14:48:58;14.93;;;13.97;;
1276;SDS011;631;51.024;13.826;2023-09-18T14:51:25;15.80;;;14.70;;
1276;SDS011;631;51.024;13.826;2023-09-18T14:53:50;15.77;;;14.87;;
1276;SDS011;631;51.024;13.826;2023-09-18T14:56:16;13.53;;;12.83;;
1276;SDS011;631;51.024;13.826;2023-09-18T14:58:42;13.40;;;12.70;;
1276;SDS011;631;51.024;13.826;2023-09-18T15:01:08;14.10;;;13.30;;